<?xml version="1.0" encoding="UTF-8" ?>
<gpx version="1.1" xmlns:xsi="http://www.w3.org/2001/XMLSchema-instance" 
    xmlns="http://www.topografix.com/GPX/1/1" 
    xsi:schemaLocation="http://www.topografix.com/GPX/1/1 http://www.topografix.com/GPX/1/1/gpx.xsd" 
    creator="Openrunner - https://www.openrunner.com" >	<trk>
						<name>IS Cyclo Rando-Etangs 2024 VTT 25km-18643105</name>
						<trkseg>
					<trkpt lat="43.501070" lon="4.994870">
						<ele>33</ele>
						<time>2025-04-28T16:10:31Z</time>
					</trkpt>
					<trkpt lat="43.501090" lon="4.994250">
						<ele>32</ele>
						<time>2025-04-28T16:10:42Z</time>
					</trkpt>
					<trkpt lat="43.501100" lon="4.993920">
						<ele>32</ele>
						<time>2025-04-28T16:10:47Z</time>
					</trkpt>
					<trkpt lat="43.501110" lon="4.993560">
						<ele>31</ele>
						<time>2025-04-28T16:10:53Z</time>
					</trkpt>
					<trkpt lat="43.500610" lon="4.993560">
						<ele>32</ele>
						<time>2025-04-28T16:11:05Z</time>
					</trkpt>
					<trkpt lat="43.500470" lon="4.993660">
						<ele>32</ele>
						<time>2025-04-28T16:11:09Z</time>
					</trkpt>
					<trkpt lat="43.500090" lon="4.993650">
						<ele>34</ele>
						<time>2025-04-28T16:11:17Z</time>
					</trkpt>
					<trkpt lat="43.499970" lon="4.993310">
						<ele>34</ele>
						<time>2025-04-28T16:11:24Z</time>
					</trkpt>
					<trkpt lat="43.500000" lon="4.992960">
						<ele>33</ele>
						<time>2025-04-28T16:11:30Z</time>
					</trkpt>
					<trkpt lat="43.499980" lon="4.992640">
						<ele>32</ele>
						<time>2025-04-28T16:11:35Z</time>
					</trkpt>
					<trkpt lat="43.499750" lon="4.992500">
						<ele>33</ele>
						<time>2025-04-28T16:11:41Z</time>
					</trkpt>
					<trkpt lat="43.499600" lon="4.992390">
						<ele>34</ele>
						<time>2025-04-28T16:11:45Z</time>
					</trkpt>
					<trkpt lat="43.499400" lon="4.992350">
						<ele>35</ele>
						<time>2025-04-28T16:11:50Z</time>
					</trkpt>
					<trkpt lat="43.499220" lon="4.992300">
						<ele>35</ele>
						<time>2025-04-28T16:11:54Z</time>
					</trkpt>
					<trkpt lat="43.499150" lon="4.992050">
						<ele>35</ele>
						<time>2025-04-28T16:11:59Z</time>
					</trkpt>
					<trkpt lat="43.499060" lon="4.992080">
						<ele>35</ele>
						<time>2025-04-28T16:12:01Z</time>
					</trkpt>
					<trkpt lat="43.499040" lon="4.991940">
						<ele>35</ele>
						<time>2025-04-28T16:12:03Z</time>
					</trkpt>
					<trkpt lat="43.498710" lon="4.991920">
						<ele>35</ele>
						<time>2025-04-28T16:12:11Z</time>
					</trkpt>
					<trkpt lat="43.498530" lon="4.992020">
						<ele>36</ele>
						<time>2025-04-28T16:12:15Z</time>
					</trkpt>
					<trkpt lat="43.498380" lon="4.991870">
						<ele>35</ele>
						<time>2025-04-28T16:12:20Z</time>
					</trkpt>
					<trkpt lat="43.498100" lon="4.991890">
						<ele>36</ele>
						<time>2025-04-28T16:12:26Z</time>
					</trkpt>
					<trkpt lat="43.497600" lon="4.992000">
						<ele>37</ele>
						<time>2025-04-28T16:12:38Z</time>
					</trkpt>
					<trkpt lat="43.497440" lon="4.991960">
						<ele>37</ele>
						<time>2025-04-28T16:12:42Z</time>
					</trkpt>
					<trkpt lat="43.496980" lon="4.992110">
						<ele>38</ele>
						<time>2025-04-28T16:12:53Z</time>
					</trkpt>
					<trkpt lat="43.496190" lon="4.992370">
						<ele>39</ele>
						<time>2025-04-28T16:13:12Z</time>
					</trkpt>
					<trkpt lat="43.496060" lon="4.992340">
						<ele>39</ele>
						<time>2025-04-28T16:13:15Z</time>
					</trkpt>
					<trkpt lat="43.495610" lon="4.992470">
						<ele>39</ele>
						<time>2025-04-28T16:13:26Z</time>
					</trkpt>
					<trkpt lat="43.495340" lon="4.992680">
						<ele>40</ele>
						<time>2025-04-28T16:13:33Z</time>
					</trkpt>
					<trkpt lat="43.494980" lon="4.991400">
						<ele>38</ele>
						<time>2025-04-28T16:13:56Z</time>
					</trkpt>
					<trkpt lat="43.495060" lon="4.991100">
						<ele>38</ele>
						<time>2025-04-28T16:14:02Z</time>
					</trkpt>
					<trkpt lat="43.494850" lon="4.990770">
						<ele>37</ele>
						<time>2025-04-28T16:14:09Z</time>
					</trkpt>
					<trkpt lat="43.494420" lon="4.990340">
						<ele>37</ele>
						<time>2025-04-28T16:14:22Z</time>
					</trkpt>
					<trkpt lat="43.494150" lon="4.990140">
						<ele>37</ele>
						<time>2025-04-28T16:14:29Z</time>
					</trkpt>
					<trkpt lat="43.493910" lon="4.989980">
						<ele>36</ele>
						<time>2025-04-28T16:14:35Z</time>
					</trkpt>
					<trkpt lat="43.493850" lon="4.990360">
						<ele>38</ele>
						<time>2025-04-28T16:14:42Z</time>
					</trkpt>
					<trkpt lat="43.493970" lon="4.990390">
						<ele>38</ele>
						<time>2025-04-28T16:14:44Z</time>
					</trkpt>
					<trkpt lat="43.493920" lon="4.990710">
						<ele>40</ele>
						<time>2025-04-28T16:14:50Z</time>
					</trkpt>
					<trkpt lat="43.493810" lon="4.990780">
						<ele>41</ele>
						<time>2025-04-28T16:14:53Z</time>
					</trkpt>
					<trkpt lat="43.493660" lon="4.990980">
						<ele>43</ele>
						<time>2025-04-28T16:14:58Z</time>
					</trkpt>
					<trkpt lat="43.493540" lon="4.991230">
						<ele>44</ele>
						<time>2025-04-28T16:15:03Z</time>
					</trkpt>
					<trkpt lat="43.493420" lon="4.991330">
						<ele>46</ele>
						<time>2025-04-28T16:15:06Z</time>
					</trkpt>
					<trkpt lat="43.493280" lon="4.991420">
						<ele>47</ele>
						<time>2025-04-28T16:15:10Z</time>
					</trkpt>
					<trkpt lat="43.493090" lon="4.991320">
						<ele>46</ele>
						<time>2025-04-28T16:15:14Z</time>
					</trkpt>
					<trkpt lat="43.492960" lon="4.991230">
						<ele>46</ele>
						<time>2025-04-28T16:15:18Z</time>
					</trkpt>
					<trkpt lat="43.492840" lon="4.991040">
						<ele>44</ele>
						<time>2025-04-28T16:15:22Z</time>
					</trkpt>
					<trkpt lat="43.492670" lon="4.990900">
						<ele>43</ele>
						<time>2025-04-28T16:15:27Z</time>
					</trkpt>
					<trkpt lat="43.492540" lon="4.991040">
						<ele>44</ele>
						<time>2025-04-28T16:15:30Z</time>
					</trkpt>
					<trkpt lat="43.492250" lon="4.991280">
						<ele>46</ele>
						<time>2025-04-28T16:15:38Z</time>
					</trkpt>
					<trkpt lat="43.492010" lon="4.991280">
						<ele>45</ele>
						<time>2025-04-28T16:15:44Z</time>
					</trkpt>
					<trkpt lat="43.491890" lon="4.991140">
						<ele>44</ele>
						<time>2025-04-28T16:15:48Z</time>
					</trkpt>
					<trkpt lat="43.491740" lon="4.991110">
						<ele>43</ele>
						<time>2025-04-28T16:15:51Z</time>
					</trkpt>
					<trkpt lat="43.491570" lon="4.991330">
						<ele>45</ele>
						<time>2025-04-28T16:15:57Z</time>
					</trkpt>
					<trkpt lat="43.491430" lon="4.991330">
						<ele>45</ele>
						<time>2025-04-28T16:16:00Z</time>
					</trkpt>
					<trkpt lat="43.491210" lon="4.990780">
						<ele>42</ele>
						<time>2025-04-28T16:16:11Z</time>
					</trkpt>
					<trkpt lat="43.491030" lon="4.990270">
						<ele>41</ele>
						<time>2025-04-28T16:16:20Z</time>
					</trkpt>
					<trkpt lat="43.490940" lon="4.990060">
						<ele>40</ele>
						<time>2025-04-28T16:16:24Z</time>
					</trkpt>
					<trkpt lat="43.490750" lon="4.989940">
						<ele>40</ele>
						<time>2025-04-28T16:16:29Z</time>
					</trkpt>
					<trkpt lat="43.490550" lon="4.989780">
						<ele>39</ele>
						<time>2025-04-28T16:16:35Z</time>
					</trkpt>
					<trkpt lat="43.490410" lon="4.989410">
						<ele>39</ele>
						<time>2025-04-28T16:16:42Z</time>
					</trkpt>
					<trkpt lat="43.490350" lon="4.988940">
						<ele>38</ele>
						<time>2025-04-28T16:16:50Z</time>
					</trkpt>
					<trkpt lat="43.490270" lon="4.988490">
						<ele>37</ele>
						<time>2025-04-28T16:16:58Z</time>
					</trkpt>
					<trkpt lat="43.489630" lon="4.988420">
						<ele>37</ele>
						<time>2025-04-28T16:17:13Z</time>
					</trkpt>
					<trkpt lat="43.489530" lon="4.988280">
						<ele>37</ele>
						<time>2025-04-28T16:17:16Z</time>
					</trkpt>
					<trkpt lat="43.489440" lon="4.988070">
						<ele>37</ele>
						<time>2025-04-28T16:17:20Z</time>
					</trkpt>
					<trkpt lat="43.489370" lon="4.988020">
						<ele>38</ele>
						<time>2025-04-28T16:17:22Z</time>
					</trkpt>
					<trkpt lat="43.489860" lon="4.987160">
						<ele>37</ele>
						<time>2025-04-28T16:17:40Z</time>
					</trkpt>
					<trkpt lat="43.489900" lon="4.986980">
						<ele>37</ele>
						<time>2025-04-28T16:17:44Z</time>
					</trkpt>
					<trkpt lat="43.489890" lon="4.986750">
						<ele>37</ele>
						<time>2025-04-28T16:17:47Z</time>
					</trkpt>
					<trkpt lat="43.489740" lon="4.986420">
						<ele>36</ele>
						<time>2025-04-28T16:17:54Z</time>
					</trkpt>
					<trkpt lat="43.489620" lon="4.986280">
						<ele>36</ele>
						<time>2025-04-28T16:17:58Z</time>
					</trkpt>
					<trkpt lat="43.488980" lon="4.986210">
						<ele>36</ele>
						<time>2025-04-28T16:18:13Z</time>
					</trkpt>
					<trkpt lat="43.488800" lon="4.986090">
						<ele>36</ele>
						<time>2025-04-28T16:18:17Z</time>
					</trkpt>
					<trkpt lat="43.488660" lon="4.986050">
						<ele>36</ele>
						<time>2025-04-28T16:18:21Z</time>
					</trkpt>
					<trkpt lat="43.488540" lon="4.986120">
						<ele>36</ele>
						<time>2025-04-28T16:18:24Z</time>
					</trkpt>
					<trkpt lat="43.487980" lon="4.985670">
						<ele>36</ele>
						<time>2025-04-28T16:18:39Z</time>
					</trkpt>
					<trkpt lat="43.487870" lon="4.985930">
						<ele>37</ele>
						<time>2025-04-28T16:18:44Z</time>
					</trkpt>
					<trkpt lat="43.487700" lon="4.986060">
						<ele>38</ele>
						<time>2025-04-28T16:18:49Z</time>
					</trkpt>
					<trkpt lat="43.487370" lon="4.985920">
						<ele>36</ele>
						<time>2025-04-28T16:18:57Z</time>
					</trkpt>
					<trkpt lat="43.486540" lon="4.986270">
						<ele>29</ele>
						<time>2025-04-28T16:19:17Z</time>
					</trkpt>
					<trkpt lat="43.486030" lon="4.986290">
						<ele>26</ele>
						<time>2025-04-28T16:19:29Z</time>
					</trkpt>
					<trkpt lat="43.486060" lon="4.986040">
						<ele>25</ele>
						<time>2025-04-28T16:19:33Z</time>
					</trkpt>
					<trkpt lat="43.485970" lon="4.985850">
						<ele>23</ele>
						<time>2025-04-28T16:19:37Z</time>
					</trkpt>
					<trkpt lat="43.485820" lon="4.985170">
						<ele>17</ele>
						<time>2025-04-28T16:19:49Z</time>
					</trkpt>
					<trkpt lat="43.486210" lon="4.985110">
						<ele>19</ele>
						<time>2025-04-28T16:19:58Z</time>
					</trkpt>
					<trkpt lat="43.486660" lon="4.985060">
						<ele>20</ele>
						<time>2025-04-28T16:20:09Z</time>
					</trkpt>
					<trkpt lat="43.486910" lon="4.984890">
						<ele>23</ele>
						<time>2025-04-28T16:20:15Z</time>
					</trkpt>
					<trkpt lat="43.487130" lon="4.984880">
						<ele>26</ele>
						<time>2025-04-28T16:20:20Z</time>
					</trkpt>
					<trkpt lat="43.487490" lon="4.984690">
						<ele>28</ele>
						<time>2025-04-28T16:20:29Z</time>
					</trkpt>
					<trkpt lat="43.487760" lon="4.984410">
						<ele>26</ele>
						<time>2025-04-28T16:20:37Z</time>
					</trkpt>
					<trkpt lat="43.488010" lon="4.984120">
						<ele>25</ele>
						<time>2025-04-28T16:20:45Z</time>
					</trkpt>
					<trkpt lat="43.487720" lon="4.982100">
						<ele>12</ele>
						<time>2025-04-28T16:21:20Z</time>
					</trkpt>
					<trkpt lat="43.487670" lon="4.982020">
						<ele>12</ele>
						<time>2025-04-28T16:21:22Z</time>
					</trkpt>
					<trkpt lat="43.487340" lon="4.982140">
						<ele>12</ele>
						<time>2025-04-28T16:21:30Z</time>
					</trkpt>
					<trkpt lat="43.486930" lon="4.982160">
						<ele>14</ele>
						<time>2025-04-28T16:21:39Z</time>
					</trkpt>
					<trkpt lat="43.486790" lon="4.982030">
						<ele>13</ele>
						<time>2025-04-28T16:21:43Z</time>
					</trkpt>
					<trkpt lat="43.486550" lon="4.981870">
						<ele>13</ele>
						<time>2025-04-28T16:21:49Z</time>
					</trkpt>
					<trkpt lat="43.486230" lon="4.981380">
						<ele>11</ele>
						<time>2025-04-28T16:22:00Z</time>
					</trkpt>
					<trkpt lat="43.485850" lon="4.980650">
						<ele>10</ele>
						<time>2025-04-28T16:22:16Z</time>
					</trkpt>
					<trkpt lat="43.485590" lon="4.980570">
						<ele>11</ele>
						<time>2025-04-28T16:22:22Z</time>
					</trkpt>
					<trkpt lat="43.485480" lon="4.980280">
						<ele>11</ele>
						<time>2025-04-28T16:22:27Z</time>
					</trkpt>
					<trkpt lat="43.485330" lon="4.979960">
						<ele>12</ele>
						<time>2025-04-28T16:22:34Z</time>
					</trkpt>
					<trkpt lat="43.485320" lon="4.979800">
						<ele>12</ele>
						<time>2025-04-28T16:22:37Z</time>
					</trkpt>
					<trkpt lat="43.485250" lon="4.979650">
						<ele>13</ele>
						<time>2025-04-28T16:22:40Z</time>
					</trkpt>
					<trkpt lat="43.485140" lon="4.979280">
						<ele>14</ele>
						<time>2025-04-28T16:22:46Z</time>
					</trkpt>
					<trkpt lat="43.485050" lon="4.979160">
						<ele>15</ele>
						<time>2025-04-28T16:22:49Z</time>
					</trkpt>
					<trkpt lat="43.484910" lon="4.979160">
						<ele>15</ele>
						<time>2025-04-28T16:22:53Z</time>
					</trkpt>
					<trkpt lat="43.484860" lon="4.979020">
						<ele>15</ele>
						<time>2025-04-28T16:22:55Z</time>
					</trkpt>
					<trkpt lat="43.484770" lon="4.979010">
						<ele>15</ele>
						<time>2025-04-28T16:22:57Z</time>
					</trkpt>
					<trkpt lat="43.484690" lon="4.979120">
						<ele>15</ele>
						<time>2025-04-28T16:23:00Z</time>
					</trkpt>
					<trkpt lat="43.484600" lon="4.979000">
						<ele>15</ele>
						<time>2025-04-28T16:23:03Z</time>
					</trkpt>
					<trkpt lat="43.484360" lon="4.978890">
						<ele>15</ele>
						<time>2025-04-28T16:23:09Z</time>
					</trkpt>
					<trkpt lat="43.484270" lon="4.978750">
						<ele>15</ele>
						<time>2025-04-28T16:23:12Z</time>
					</trkpt>
					<trkpt lat="43.484060" lon="4.978650">
						<ele>15</ele>
						<time>2025-04-28T16:23:17Z</time>
					</trkpt>
					<trkpt lat="43.483790" lon="4.978660">
						<ele>16</ele>
						<time>2025-04-28T16:23:23Z</time>
					</trkpt>
					<trkpt lat="43.483540" lon="4.978730">
						<ele>16</ele>
						<time>2025-04-28T16:23:29Z</time>
					</trkpt>
					<trkpt lat="43.483290" lon="4.978820">
						<ele>17</ele>
						<time>2025-04-28T16:23:35Z</time>
					</trkpt>
					<trkpt lat="43.482920" lon="4.978780">
						<ele>19</ele>
						<time>2025-04-28T16:23:44Z</time>
					</trkpt>
					<trkpt lat="43.482920" lon="4.978400">
						<ele>22</ele>
						<time>2025-04-28T16:23:51Z</time>
					</trkpt>
					<trkpt lat="43.482820" lon="4.978630">
						<ele>21</ele>
						<time>2025-04-28T16:23:55Z</time>
					</trkpt>
					<trkpt lat="43.482780" lon="4.978800">
						<ele>20</ele>
						<time>2025-04-28T16:23:58Z</time>
					</trkpt>
					<trkpt lat="43.482630" lon="4.978860">
						<ele>21</ele>
						<time>2025-04-28T16:24:02Z</time>
					</trkpt>
					<trkpt lat="43.482450" lon="4.978860">
						<ele>21</ele>
						<time>2025-04-28T16:24:06Z</time>
					</trkpt>
					<trkpt lat="43.482180" lon="4.979070">
						<ele>19</ele>
						<time>2025-04-28T16:24:13Z</time>
					</trkpt>
					<trkpt lat="43.482080" lon="4.979040">
						<ele>19</ele>
						<time>2025-04-28T16:24:16Z</time>
					</trkpt>
					<trkpt lat="43.481800" lon="4.979230">
						<ele>18</ele>
						<time>2025-04-28T16:24:23Z</time>
					</trkpt>
					<trkpt lat="43.481710" lon="4.979690">
						<ele>16</ele>
						<time>2025-04-28T16:24:31Z</time>
					</trkpt>
					<trkpt lat="43.481830" lon="4.980190">
						<ele>14</ele>
						<time>2025-04-28T16:24:40Z</time>
					</trkpt>
					<trkpt lat="43.482030" lon="4.980800">
						<ele>15</ele>
						<time>2025-04-28T16:24:51Z</time>
					</trkpt>
					<trkpt lat="43.482110" lon="4.981110">
						<ele>15</ele>
						<time>2025-04-28T16:24:57Z</time>
					</trkpt>
					<trkpt lat="43.482120" lon="4.981430">
						<ele>16</ele>
						<time>2025-04-28T16:25:02Z</time>
					</trkpt>
					<trkpt lat="43.482040" lon="4.981790">
						<ele>17</ele>
						<time>2025-04-28T16:25:09Z</time>
					</trkpt>
					<trkpt lat="43.481710" lon="4.981640">
						<ele>18</ele>
						<time>2025-04-28T16:25:17Z</time>
					</trkpt>
					<trkpt lat="43.481090" lon="4.981310">
						<ele>16</ele>
						<time>2025-04-28T16:25:32Z</time>
					</trkpt>
					<trkpt lat="43.480880" lon="4.980870">
						<ele>16</ele>
						<time>2025-04-28T16:25:41Z</time>
					</trkpt>
					<trkpt lat="43.480390" lon="4.979910">
						<ele>15</ele>
						<time>2025-04-28T16:26:01Z</time>
					</trkpt>
					<trkpt lat="43.479980" lon="4.979310">
						<ele>14</ele>
						<time>2025-04-28T16:26:15Z</time>
					</trkpt>
					<trkpt lat="43.479420" lon="4.978680">
						<ele>13</ele>
						<time>2025-04-28T16:26:32Z</time>
					</trkpt>
					<trkpt lat="43.478980" lon="4.978150">
						<ele>13</ele>
						<time>2025-04-28T16:26:46Z</time>
					</trkpt>
					<trkpt lat="43.478200" lon="4.976500">
						<ele>17</ele>
						<time>2025-04-28T16:27:19Z</time>
					</trkpt>
					<trkpt lat="43.478660" lon="4.975780">
						<ele>17</ele>
						<time>2025-04-28T16:27:35Z</time>
					</trkpt>
					<trkpt lat="43.478590" lon="4.975680">
						<ele>18</ele>
						<time>2025-04-28T16:27:38Z</time>
					</trkpt>
					<trkpt lat="43.478020" lon="4.976000">
						<ele>20</ele>
						<time>2025-04-28T16:27:52Z</time>
					</trkpt>
					<trkpt lat="43.477810" lon="4.975890">
						<ele>22</ele>
						<time>2025-04-28T16:27:57Z</time>
					</trkpt>
					<trkpt lat="43.477670" lon="4.975850">
						<ele>24</ele>
						<time>2025-04-28T16:28:01Z</time>
					</trkpt>
					<trkpt lat="43.477600" lon="4.975680">
						<ele>25</ele>
						<time>2025-04-28T16:28:04Z</time>
					</trkpt>
					<trkpt lat="43.477350" lon="4.975890">
						<ele>24</ele>
						<time>2025-04-28T16:28:11Z</time>
					</trkpt>
					<trkpt lat="43.476900" lon="4.975790">
						<ele>24</ele>
						<time>2025-04-28T16:28:21Z</time>
					</trkpt>
					<trkpt lat="43.476550" lon="4.975570">
						<ele>22</ele>
						<time>2025-04-28T16:28:30Z</time>
					</trkpt>
					<trkpt lat="43.476360" lon="4.975500">
						<ele>20</ele>
						<time>2025-04-28T16:28:35Z</time>
					</trkpt>
					<trkpt lat="43.476190" lon="4.975700">
						<ele>18</ele>
						<time>2025-04-28T16:28:40Z</time>
					</trkpt>
					<trkpt lat="43.475710" lon="4.975940">
						<ele>15</ele>
						<time>2025-04-28T16:28:52Z</time>
					</trkpt>
					<trkpt lat="43.475310" lon="4.976140">
						<ele>14</ele>
						<time>2025-04-28T16:29:02Z</time>
					</trkpt>
					<trkpt lat="43.475200" lon="4.976210">
						<ele>14</ele>
						<time>2025-04-28T16:29:05Z</time>
					</trkpt>
					<trkpt lat="43.474990" lon="4.976180">
						<ele>13</ele>
						<time>2025-04-28T16:29:10Z</time>
					</trkpt>
					<trkpt lat="43.474770" lon="4.976870">
						<ele>15</ele>
						<time>2025-04-28T16:29:23Z</time>
					</trkpt>
					<trkpt lat="43.474680" lon="4.976860">
						<ele>15</ele>
						<time>2025-04-28T16:29:25Z</time>
					</trkpt>
					<trkpt lat="43.474560" lon="4.976970">
						<ele>15</ele>
						<time>2025-04-28T16:29:28Z</time>
					</trkpt>
					<trkpt lat="43.474090" lon="4.976800">
						<ele>11</ele>
						<time>2025-04-28T16:29:39Z</time>
					</trkpt>
					<trkpt lat="43.473940" lon="4.976730">
						<ele>9</ele>
						<time>2025-04-28T16:29:43Z</time>
					</trkpt>
					<trkpt lat="43.473400" lon="4.976700">
						<ele>6</ele>
						<time>2025-04-28T16:29:56Z</time>
					</trkpt>
					<trkpt lat="43.472880" lon="4.976850">
						<ele>4</ele>
						<time>2025-04-28T16:30:08Z</time>
					</trkpt>
					<trkpt lat="43.472790" lon="4.976680">
						<ele>0</ele>
						<time>2025-04-28T16:30:12Z</time>
					</trkpt>
					<trkpt lat="43.472880" lon="4.976350">
						<ele>-3</ele>
						<time>2025-04-28T16:30:18Z</time>
					</trkpt>
					<trkpt lat="43.473520" lon="4.976180">
						<ele>-1</ele>
						<time>2025-04-28T16:30:33Z</time>
					</trkpt>
					<trkpt lat="43.474070" lon="4.975790">
						<ele>-3</ele>
						<time>2025-04-28T16:30:47Z</time>
					</trkpt>
					<trkpt lat="43.474860" lon="4.973960">
						<ele>-2</ele>
						<time>2025-04-28T16:31:23Z</time>
					</trkpt>
					<trkpt lat="43.475150" lon="4.972250">
						<ele>-5</ele>
						<time>2025-04-28T16:31:53Z</time>
					</trkpt>
					<trkpt lat="43.475540" lon="4.971230">
						<ele>-4</ele>
						<time>2025-04-28T16:32:13Z</time>
					</trkpt>
					<trkpt lat="43.475840" lon="4.968100">
						<ele>-5</ele>
						<time>2025-04-28T16:33:06Z</time>
					</trkpt>
					<trkpt lat="43.475700" lon="4.965420">
						<ele>-7</ele>
						<time>2025-04-28T16:33:52Z</time>
					</trkpt>
					<trkpt lat="43.474860" lon="4.962060">
						<ele>-7</ele>
						<time>2025-04-28T16:34:52Z</time>
					</trkpt>
					<trkpt lat="43.474710" lon="4.961830">
						<ele>-7</ele>
						<time>2025-04-28T16:34:57Z</time>
					</trkpt>
					<trkpt lat="43.474530" lon="4.961500">
						<ele>-8</ele>
						<time>2025-04-28T16:35:04Z</time>
					</trkpt>
					<trkpt lat="43.474420" lon="4.961100">
						<ele>-8</ele>
						<time>2025-04-28T16:35:11Z</time>
					</trkpt>
					<trkpt lat="43.474080" lon="4.960580">
						<ele>-9</ele>
						<time>2025-04-28T16:35:23Z</time>
					</trkpt>
					<trkpt lat="43.473710" lon="4.957230">
						<ele>-6</ele>
						<time>2025-04-28T16:36:21Z</time>
					</trkpt>
					<trkpt lat="43.474420" lon="4.956880">
						<ele>-6</ele>
						<time>2025-04-28T16:36:38Z</time>
					</trkpt>
					<trkpt lat="43.474530" lon="4.956770">
						<ele>-6</ele>
						<time>2025-04-28T16:36:41Z</time>
					</trkpt>
					<trkpt lat="43.474850" lon="4.955060">
						<ele>-4</ele>
						<time>2025-04-28T16:37:11Z</time>
					</trkpt>
					<trkpt lat="43.474870" lon="4.954850">
						<ele>-4</ele>
						<time>2025-04-28T16:37:15Z</time>
					</trkpt>
					<trkpt lat="43.474850" lon="4.954580">
						<ele>-3</ele>
						<time>2025-04-28T16:37:20Z</time>
					</trkpt>
					<trkpt lat="43.474770" lon="4.954240">
						<ele>-2</ele>
						<time>2025-04-28T16:37:26Z</time>
					</trkpt>
					<trkpt lat="43.474550" lon="4.953890">
						<ele>1</ele>
						<time>2025-04-28T16:37:34Z</time>
					</trkpt>
					<trkpt lat="43.474030" lon="4.953840">
						<ele>3</ele>
						<time>2025-04-28T16:37:46Z</time>
					</trkpt>
					<trkpt lat="43.473260" lon="4.953870">
						<ele>2</ele>
						<time>2025-04-28T16:38:04Z</time>
					</trkpt>
					<trkpt lat="43.473200" lon="4.953710">
						<ele>3</ele>
						<time>2025-04-28T16:38:07Z</time>
					</trkpt>
					<trkpt lat="43.473240" lon="4.953140">
						<ele>6</ele>
						<time>2025-04-28T16:38:16Z</time>
					</trkpt>
					<trkpt lat="43.473150" lon="4.952940">
						<ele>8</ele>
						<time>2025-04-28T16:38:20Z</time>
					</trkpt>
					<trkpt lat="43.472990" lon="4.952830">
						<ele>9</ele>
						<time>2025-04-28T16:38:25Z</time>
					</trkpt>
					<trkpt lat="43.472760" lon="4.952950">
						<ele>9</ele>
						<time>2025-04-28T16:38:30Z</time>
					</trkpt>
					<trkpt lat="43.472770" lon="4.953240">
						<ele>7</ele>
						<time>2025-04-28T16:38:35Z</time>
					</trkpt>
					<trkpt lat="43.472220" lon="4.953310">
						<ele>7</ele>
						<time>2025-04-28T16:38:48Z</time>
					</trkpt>
					<trkpt lat="43.472050" lon="4.953320">
						<ele>7</ele>
						<time>2025-04-28T16:38:52Z</time>
					</trkpt>
					<trkpt lat="43.471860" lon="4.953280">
						<ele>7</ele>
						<time>2025-04-28T16:38:57Z</time>
					</trkpt>
					<trkpt lat="43.471670" lon="4.953330">
						<ele>6</ele>
						<time>2025-04-28T16:39:01Z</time>
					</trkpt>
					<trkpt lat="43.470960" lon="4.953730">
						<ele>6</ele>
						<time>2025-04-28T16:39:19Z</time>
					</trkpt>
					<trkpt lat="43.470400" lon="4.954220">
						<ele>4</ele>
						<time>2025-04-28T16:39:35Z</time>
					</trkpt>
					<trkpt lat="43.470170" lon="4.954360">
						<ele>4</ele>
						<time>2025-04-28T16:39:40Z</time>
					</trkpt>
					<trkpt lat="43.470050" lon="4.954560">
						<ele>2</ele>
						<time>2025-04-28T16:39:45Z</time>
					</trkpt>
					<trkpt lat="43.469550" lon="4.954890">
						<ele>3</ele>
						<time>2025-04-28T16:39:58Z</time>
					</trkpt>
					<trkpt lat="43.469460" lon="4.954830">
						<ele>4</ele>
						<time>2025-04-28T16:40:00Z</time>
					</trkpt>
					<trkpt lat="43.469310" lon="4.954770">
						<ele>6</ele>
						<time>2025-04-28T16:40:04Z</time>
					</trkpt>
					<trkpt lat="43.469260" lon="4.954560">
						<ele>9</ele>
						<time>2025-04-28T16:40:07Z</time>
					</trkpt>
					<trkpt lat="43.469420" lon="4.954380">
						<ele>9</ele>
						<time>2025-04-28T16:40:12Z</time>
					</trkpt>
					<trkpt lat="43.469630" lon="4.954090">
						<ele>11</ele>
						<time>2025-04-28T16:40:19Z</time>
					</trkpt>
					<trkpt lat="43.469730" lon="4.953940">
						<ele>12</ele>
						<time>2025-04-28T16:40:23Z</time>
					</trkpt>
					<trkpt lat="43.469840" lon="4.953770">
						<ele>14</ele>
						<time>2025-04-28T16:40:27Z</time>
					</trkpt>
					<trkpt lat="43.469840" lon="4.953630">
						<ele>16</ele>
						<time>2025-04-28T16:40:29Z</time>
					</trkpt>
					<trkpt lat="43.469340" lon="4.953840">
						<ele>16</ele>
						<time>2025-04-28T16:40:41Z</time>
					</trkpt>
					<trkpt lat="43.468490" lon="4.954770">
						<ele>15</ele>
						<time>2025-04-28T16:41:06Z</time>
					</trkpt>
					<trkpt lat="43.468440" lon="4.954870">
						<ele>15</ele>
						<time>2025-04-28T16:41:09Z</time>
					</trkpt>
					<trkpt lat="43.468370" lon="4.955200">
						<ele>13</ele>
						<time>2025-04-28T16:41:14Z</time>
					</trkpt>
					<trkpt lat="43.468250" lon="4.955400">
						<ele>12</ele>
						<time>2025-04-28T16:41:19Z</time>
					</trkpt>
					<trkpt lat="43.467910" lon="4.955550">
						<ele>12</ele>
						<time>2025-04-28T16:41:27Z</time>
					</trkpt>
					<trkpt lat="43.467640" lon="4.955590">
						<ele>13</ele>
						<time>2025-04-28T16:41:33Z</time>
					</trkpt>
					<trkpt lat="43.467320" lon="4.955400">
						<ele>14</ele>
						<time>2025-04-28T16:41:42Z</time>
					</trkpt>
					<trkpt lat="43.466950" lon="4.954990">
						<ele>18</ele>
						<time>2025-04-28T16:41:53Z</time>
					</trkpt>
					<trkpt lat="43.466790" lon="4.954640">
						<ele>20</ele>
						<time>2025-04-28T16:42:00Z</time>
					</trkpt>
					<trkpt lat="43.466670" lon="4.954560">
						<ele>21</ele>
						<time>2025-04-28T16:42:03Z</time>
					</trkpt>
					<trkpt lat="43.465910" lon="4.954510">
						<ele>24</ele>
						<time>2025-04-28T16:42:21Z</time>
					</trkpt>
					<trkpt lat="43.465410" lon="4.954450">
						<ele>28</ele>
						<time>2025-04-28T16:42:32Z</time>
					</trkpt>
					<trkpt lat="43.465200" lon="4.954430">
						<ele>29</ele>
						<time>2025-04-28T16:42:37Z</time>
					</trkpt>
					<trkpt lat="43.464980" lon="4.954380">
						<ele>30</ele>
						<time>2025-04-28T16:42:42Z</time>
					</trkpt>
					<trkpt lat="43.463780" lon="4.955550">
						<ele>30</ele>
						<time>2025-04-28T16:43:17Z</time>
					</trkpt>
					<trkpt lat="43.463280" lon="4.955930">
						<ele>28</ele>
						<time>2025-04-28T16:43:30Z</time>
					</trkpt>
					<trkpt lat="43.462460" lon="4.956540">
						<ele>26</ele>
						<time>2025-04-28T16:43:52Z</time>
					</trkpt>
					<trkpt lat="43.461050" lon="4.957170">
						<ele>29</ele>
						<time>2025-04-28T16:44:26Z</time>
					</trkpt>
					<trkpt lat="43.460650" lon="4.957440">
						<ele>30</ele>
						<time>2025-04-28T16:44:37Z</time>
					</trkpt>
					<trkpt lat="43.460500" lon="4.957540">
						<ele>30</ele>
						<time>2025-04-28T16:44:41Z</time>
					</trkpt>
					<trkpt lat="43.460030" lon="4.957680">
						<ele>29</ele>
						<time>2025-04-28T16:44:52Z</time>
					</trkpt>
					<trkpt lat="43.459550" lon="4.957980">
						<ele>27</ele>
						<time>2025-04-28T16:45:04Z</time>
					</trkpt>
					<trkpt lat="43.459250" lon="4.958210">
						<ele>27</ele>
						<time>2025-04-28T16:45:12Z</time>
					</trkpt>
					<trkpt lat="43.458250" lon="4.958660">
						<ele>24</ele>
						<time>2025-04-28T16:45:37Z</time>
					</trkpt>
					<trkpt lat="43.458000" lon="4.958810">
						<ele>23</ele>
						<time>2025-04-28T16:45:43Z</time>
					</trkpt>
					<trkpt lat="43.457550" lon="4.958950">
						<ele>23</ele>
						<time>2025-04-28T16:45:54Z</time>
					</trkpt>
					<trkpt lat="43.457300" lon="4.959110">
						<ele>24</ele>
						<time>2025-04-28T16:46:00Z</time>
					</trkpt>
					<trkpt lat="43.456880" lon="4.959510">
						<ele>23</ele>
						<time>2025-04-28T16:46:12Z</time>
					</trkpt>
					<trkpt lat="43.456540" lon="4.959980">
						<ele>23</ele>
						<time>2025-04-28T16:46:24Z</time>
					</trkpt>
					<trkpt lat="43.456260" lon="4.960260">
						<ele>23</ele>
						<time>2025-04-28T16:46:32Z</time>
					</trkpt>
					<trkpt lat="43.456170" lon="4.960530">
						<ele>23</ele>
						<time>2025-04-28T16:46:37Z</time>
					</trkpt>
					<trkpt lat="43.456070" lon="4.961130">
						<ele>23</ele>
						<time>2025-04-28T16:46:47Z</time>
					</trkpt>
					<trkpt lat="43.455950" lon="4.961510">
						<ele>25</ele>
						<time>2025-04-28T16:46:54Z</time>
					</trkpt>
					<trkpt lat="43.455740" lon="4.961940">
						<ele>25</ele>
						<time>2025-04-28T16:47:03Z</time>
					</trkpt>
					<trkpt lat="43.454690" lon="4.963140">
						<ele>27</ele>
						<time>2025-04-28T16:47:35Z</time>
					</trkpt>
					<trkpt lat="43.453580" lon="4.964810">
						<ele>27</ele>
						<time>2025-04-28T16:48:13Z</time>
					</trkpt>
					<trkpt lat="43.453180" lon="4.965200">
						<ele>30</ele>
						<time>2025-04-28T16:48:25Z</time>
					</trkpt>
					<trkpt lat="43.453000" lon="4.965590">
						<ele>26</ele>
						<time>2025-04-28T16:48:33Z</time>
					</trkpt>
					<trkpt lat="43.452200" lon="4.966630">
						<ele>23</ele>
						<time>2025-04-28T16:48:58Z</time>
					</trkpt>
					<trkpt lat="43.451930" lon="4.966970">
						<ele>22</ele>
						<time>2025-04-28T16:49:07Z</time>
					</trkpt>
					<trkpt lat="43.451180" lon="4.967410">
						<ele>23</ele>
						<time>2025-04-28T16:49:26Z</time>
					</trkpt>
					<trkpt lat="43.450500" lon="4.967270">
						<ele>25</ele>
						<time>2025-04-28T16:49:42Z</time>
					</trkpt>
					<trkpt lat="43.450420" lon="4.967310">
						<ele>24</ele>
						<time>2025-04-28T16:49:44Z</time>
					</trkpt>
					<trkpt lat="43.450260" lon="4.967180">
						<ele>24</ele>
						<time>2025-04-28T16:49:48Z</time>
					</trkpt>
					<trkpt lat="43.450080" lon="4.966850">
						<ele>26</ele>
						<time>2025-04-28T16:49:55Z</time>
					</trkpt>
					<trkpt lat="43.450040" lon="4.966660">
						<ele>27</ele>
						<time>2025-04-28T16:49:59Z</time>
					</trkpt>
					<trkpt lat="43.449850" lon="4.966320">
						<ele>30</ele>
						<time>2025-04-28T16:50:06Z</time>
					</trkpt>
					<trkpt lat="43.449770" lon="4.966190">
						<ele>31</ele>
						<time>2025-04-28T16:50:09Z</time>
					</trkpt>
					<trkpt lat="43.449640" lon="4.966020">
						<ele>34</ele>
						<time>2025-04-28T16:50:13Z</time>
					</trkpt>
					<trkpt lat="43.449550" lon="4.965450">
						<ele>36</ele>
						<time>2025-04-28T16:50:23Z</time>
					</trkpt>
					<trkpt lat="43.449560" lon="4.965210">
						<ele>36</ele>
						<time>2025-04-28T16:50:27Z</time>
					</trkpt>
					<trkpt lat="43.449680" lon="4.964530">
						<ele>36</ele>
						<time>2025-04-28T16:50:39Z</time>
					</trkpt>
					<trkpt lat="43.449690" lon="4.964130">
						<ele>36</ele>
						<time>2025-04-28T16:50:45Z</time>
					</trkpt>
					<trkpt lat="43.449730" lon="4.963610">
						<ele>34</ele>
						<time>2025-04-28T16:50:54Z</time>
					</trkpt>
					<trkpt lat="43.449390" lon="4.963590">
						<ele>36</ele>
						<time>2025-04-28T16:51:02Z</time>
					</trkpt>
					<trkpt lat="43.449220" lon="4.963680">
						<ele>37</ele>
						<time>2025-04-28T16:51:07Z</time>
					</trkpt>
					<trkpt lat="43.448540" lon="4.963710">
						<ele>41</ele>
						<time>2025-04-28T16:51:22Z</time>
					</trkpt>
					<trkpt lat="43.447860" lon="4.963860">
						<ele>41</ele>
						<time>2025-04-28T16:51:39Z</time>
					</trkpt>
					<trkpt lat="43.446920" lon="4.964080">
						<ele>38</ele>
						<time>2025-04-28T16:52:01Z</time>
					</trkpt>
					<trkpt lat="43.446300" lon="4.964270">
						<ele>36</ele>
						<time>2025-04-28T16:52:16Z</time>
					</trkpt>
					<trkpt lat="43.445560" lon="4.964520">
						<ele>34</ele>
						<time>2025-04-28T16:52:33Z</time>
					</trkpt>
					<trkpt lat="43.444830" lon="4.964900">
						<ele>32</ele>
						<time>2025-04-28T16:52:52Z</time>
					</trkpt>
					<trkpt lat="43.444390" lon="4.965170">
						<ele>33</ele>
						<time>2025-04-28T16:53:03Z</time>
					</trkpt>
					<trkpt lat="43.443850" lon="4.965410">
						<ele>32</ele>
						<time>2025-04-28T16:53:16Z</time>
					</trkpt>
					<trkpt lat="43.443380" lon="4.965620">
						<ele>31</ele>
						<time>2025-04-28T16:53:28Z</time>
					</trkpt>
					<trkpt lat="43.442600" lon="4.965760">
						<ele>27</ele>
						<time>2025-04-28T16:53:46Z</time>
					</trkpt>
					<trkpt lat="43.441650" lon="4.966200">
						<ele>28</ele>
						<time>2025-04-28T16:54:09Z</time>
					</trkpt>
					<trkpt lat="43.440770" lon="4.966650">
						<ele>32</ele>
						<time>2025-04-28T16:54:31Z</time>
					</trkpt>
					<trkpt lat="43.440510" lon="4.966960">
						<ele>33</ele>
						<time>2025-04-28T16:54:39Z</time>
					</trkpt>
					<trkpt lat="43.440190" lon="4.967220">
						<ele>32</ele>
						<time>2025-04-28T16:54:48Z</time>
					</trkpt>
					<trkpt lat="43.439480" lon="4.967500">
						<ele>31</ele>
						<time>2025-04-28T16:55:05Z</time>
					</trkpt>
					<trkpt lat="43.439010" lon="4.967780">
						<ele>28</ele>
						<time>2025-04-28T16:55:17Z</time>
					</trkpt>
					<trkpt lat="43.438500" lon="4.968100">
						<ele>29</ele>
						<time>2025-04-28T16:55:30Z</time>
					</trkpt>
					<trkpt lat="43.437860" lon="4.968350">
						<ele>25</ele>
						<time>2025-04-28T16:55:46Z</time>
					</trkpt>
					<trkpt lat="43.437120" lon="4.968670">
						<ele>10</ele>
						<time>2025-04-28T16:56:04Z</time>
					</trkpt>
					<trkpt lat="43.436510" lon="4.968960">
						<ele>2</ele>
						<time>2025-04-28T16:56:19Z</time>
					</trkpt>
					<trkpt lat="43.436310" lon="4.969050">
						<ele>2</ele>
						<time>2025-04-28T16:56:24Z</time>
					</trkpt>
					<trkpt lat="43.435470" lon="4.969540">
						<ele>2</ele>
						<time>2025-04-28T16:56:45Z</time>
					</trkpt>
					<trkpt lat="43.434350" lon="4.970310">
						<ele>2</ele>
						<time>2025-04-28T16:57:15Z</time>
					</trkpt>
					<trkpt lat="43.433820" lon="4.970730">
						<ele>4</ele>
						<time>2025-04-28T16:57:29Z</time>
					</trkpt>
					<trkpt lat="43.433400" lon="4.971020">
						<ele>5</ele>
						<time>2025-04-28T16:57:40Z</time>
					</trkpt>
					<trkpt lat="43.433000" lon="4.971380">
						<ele>5</ele>
						<time>2025-04-28T16:57:51Z</time>
					</trkpt>
					<trkpt lat="43.432840" lon="4.971620">
						<ele>4</ele>
						<time>2025-04-28T16:57:56Z</time>
					</trkpt>
					<trkpt lat="43.432750" lon="4.971800">
						<ele>4</ele>
						<time>2025-04-28T16:58:00Z</time>
					</trkpt>
					<trkpt lat="43.432670" lon="4.971870">
						<ele>4</ele>
						<time>2025-04-28T16:58:02Z</time>
					</trkpt>
					<trkpt lat="43.432600" lon="4.972050">
						<ele>4</ele>
						<time>2025-04-28T16:58:06Z</time>
					</trkpt>
					<trkpt lat="43.432690" lon="4.972350">
						<ele>3</ele>
						<time>2025-04-28T16:58:11Z</time>
					</trkpt>
					<trkpt lat="43.432550" lon="4.972470">
						<ele>3</ele>
						<time>2025-04-28T16:58:15Z</time>
					</trkpt>
					<trkpt lat="43.432090" lon="4.972620">
						<ele>3</ele>
						<time>2025-04-28T16:58:26Z</time>
					</trkpt>
					<trkpt lat="43.431160" lon="4.972790">
						<ele>2</ele>
						<time>2025-04-28T16:58:48Z</time>
					</trkpt>
					<trkpt lat="43.431330" lon="4.973540">
						<ele>1</ele>
						<time>2025-04-28T16:59:01Z</time>
					</trkpt>
					<trkpt lat="43.431400" lon="4.973840">
						<ele>0</ele>
						<time>2025-04-28T16:59:07Z</time>
					</trkpt>
					<trkpt lat="43.431410" lon="4.974150">
						<ele>-0</ele>
						<time>2025-04-28T16:59:12Z</time>
					</trkpt>
					<trkpt lat="43.431110" lon="4.975330">
						<ele>-0</ele>
						<time>2025-04-28T16:59:33Z</time>
					</trkpt>
					<trkpt lat="43.430770" lon="4.976640">
						<ele>1</ele>
						<time>2025-04-28T16:59:57Z</time>
					</trkpt>
					<trkpt lat="43.430670" lon="4.976810">
						<ele>1</ele>
						<time>2025-04-28T17:00:01Z</time>
					</trkpt>
					<trkpt lat="43.430680" lon="4.977020">
						<ele>1</ele>
						<time>2025-04-28T17:00:04Z</time>
					</trkpt>
					<trkpt lat="43.430480" lon="4.978200">
						<ele>1</ele>
						<time>2025-04-28T17:00:25Z</time>
					</trkpt>
					<trkpt lat="43.430190" lon="4.979890">
						<ele>7</ele>
						<time>2025-04-28T17:00:54Z</time>
					</trkpt>
					<trkpt lat="43.429960" lon="4.981390">
						<ele>10</ele>
						<time>2025-04-28T17:01:20Z</time>
					</trkpt>
					<trkpt lat="43.429900" lon="4.981950">
						<ele>11</ele>
						<time>2025-04-28T17:01:30Z</time>
					</trkpt>
					<trkpt lat="43.429920" lon="4.983100">
						<ele>19</ele>
						<time>2025-04-28T17:01:49Z</time>
					</trkpt>
					<trkpt lat="43.430110" lon="4.983450">
						<ele>22</ele>
						<time>2025-04-28T17:01:57Z</time>
					</trkpt>
					<trkpt lat="43.430300" lon="4.984300">
						<ele>25</ele>
						<time>2025-04-28T17:02:12Z</time>
					</trkpt>
					<trkpt lat="43.431020" lon="4.984280">
						<ele>22</ele>
						<time>2025-04-28T17:02:29Z</time>
					</trkpt>
					<trkpt lat="43.431150" lon="4.983770">
						<ele>23</ele>
						<time>2025-04-28T17:02:38Z</time>
					</trkpt>
					<trkpt lat="43.431510" lon="4.983100">
						<ele>23</ele>
						<time>2025-04-28T17:02:52Z</time>
					</trkpt>
					<trkpt lat="43.432220" lon="4.982530">
						<ele>19</ele>
						<time>2025-04-28T17:03:11Z</time>
					</trkpt>
					<trkpt lat="43.433500" lon="4.982150">
						<ele>25</ele>
						<time>2025-04-28T17:03:42Z</time>
					</trkpt>
					<trkpt lat="43.434270" lon="4.981600">
						<ele>26</ele>
						<time>2025-04-28T17:04:02Z</time>
					</trkpt>
					<trkpt lat="43.434810" lon="4.981030">
						<ele>24</ele>
						<time>2025-04-28T17:04:18Z</time>
					</trkpt>
					<trkpt lat="43.435450" lon="4.980480">
						<ele>24</ele>
						<time>2025-04-28T17:04:35Z</time>
					</trkpt>
					<trkpt lat="43.435920" lon="4.980220">
						<ele>26</ele>
						<time>2025-04-28T17:04:47Z</time>
					</trkpt>
					<trkpt lat="43.436590" lon="4.979480">
						<ele>21</ele>
						<time>2025-04-28T17:05:07Z</time>
					</trkpt>
					<trkpt lat="43.437470" lon="4.978880">
						<ele>19</ele>
						<time>2025-04-28T17:05:30Z</time>
					</trkpt>
					<trkpt lat="43.437910" lon="4.978760">
						<ele>20</ele>
						<time>2025-04-28T17:05:41Z</time>
					</trkpt>
					<trkpt lat="43.438820" lon="4.978670">
						<ele>24</ele>
						<time>2025-04-28T17:06:02Z</time>
					</trkpt>
					<trkpt lat="43.439890" lon="4.978560">
						<ele>26</ele>
						<time>2025-04-28T17:06:27Z</time>
					</trkpt>
					<trkpt lat="43.440450" lon="4.978470">
						<ele>22</ele>
						<time>2025-04-28T17:06:40Z</time>
					</trkpt>
					<trkpt lat="43.440960" lon="4.978510">
						<ele>21</ele>
						<time>2025-04-28T17:06:52Z</time>
					</trkpt>
					<trkpt lat="43.441580" lon="4.978610">
						<ele>22</ele>
						<time>2025-04-28T17:07:07Z</time>
					</trkpt>
					<trkpt lat="43.442280" lon="4.978680">
						<ele>26</ele>
						<time>2025-04-28T17:07:23Z</time>
					</trkpt>
					<trkpt lat="43.442570" lon="4.978690">
						<ele>26</ele>
						<time>2025-04-28T17:07:30Z</time>
					</trkpt>
					<trkpt lat="43.442860" lon="4.978670">
						<ele>25</ele>
						<time>2025-04-28T17:07:37Z</time>
					</trkpt>
					<trkpt lat="43.443170" lon="4.978550">
						<ele>20</ele>
						<time>2025-04-28T17:07:44Z</time>
					</trkpt>
					<trkpt lat="43.443570" lon="4.978540">
						<ele>17</ele>
						<time>2025-04-28T17:07:54Z</time>
					</trkpt>
					<trkpt lat="43.443930" lon="4.978670">
						<ele>16</ele>
						<time>2025-04-28T17:08:02Z</time>
					</trkpt>
					<trkpt lat="43.444200" lon="4.978890">
						<ele>18</ele>
						<time>2025-04-28T17:08:10Z</time>
					</trkpt>
					<trkpt lat="43.444380" lon="4.979320">
						<ele>20</ele>
						<time>2025-04-28T17:08:18Z</time>
					</trkpt>
					<trkpt lat="43.444360" lon="4.979820">
						<ele>26</ele>
						<time>2025-04-28T17:08:26Z</time>
					</trkpt>
					<trkpt lat="43.444280" lon="4.980340">
						<ele>26</ele>
						<time>2025-04-28T17:08:36Z</time>
					</trkpt>
					<trkpt lat="43.444070" lon="4.980950">
						<ele>26</ele>
						<time>2025-04-28T17:08:47Z</time>
					</trkpt>
					<trkpt lat="43.443880" lon="4.981390">
						<ele>28</ele>
						<time>2025-04-28T17:08:56Z</time>
					</trkpt>
					<trkpt lat="43.443710" lon="4.981940">
						<ele>31</ele>
						<time>2025-04-28T17:09:06Z</time>
					</trkpt>
					<trkpt lat="43.443720" lon="4.982130">
						<ele>32</ele>
						<time>2025-04-28T17:09:09Z</time>
					</trkpt>
					<trkpt lat="43.443920" lon="4.982430">
						<ele>32</ele>
						<time>2025-04-28T17:09:16Z</time>
					</trkpt>
					<trkpt lat="43.444220" lon="4.982380">
						<ele>29</ele>
						<time>2025-04-28T17:09:23Z</time>
					</trkpt>
					<trkpt lat="43.444550" lon="4.982260">
						<ele>27</ele>
						<time>2025-04-28T17:09:31Z</time>
					</trkpt>
					<trkpt lat="43.445200" lon="4.982230">
						<ele>27</ele>
						<time>2025-04-28T17:09:46Z</time>
					</trkpt>
					<trkpt lat="43.445650" lon="4.982280">
						<ele>30</ele>
						<time>2025-04-28T17:09:57Z</time>
					</trkpt>
					<trkpt lat="43.446080" lon="4.982000">
						<ele>32</ele>
						<time>2025-04-28T17:10:08Z</time>
					</trkpt>
					<trkpt lat="43.446220" lon="4.981720">
						<ele>31</ele>
						<time>2025-04-28T17:10:14Z</time>
					</trkpt>
					<trkpt lat="43.446230" lon="4.981450">
						<ele>31</ele>
						<time>2025-04-28T17:10:18Z</time>
					</trkpt>
					<trkpt lat="43.446170" lon="4.981060">
						<ele>28</ele>
						<time>2025-04-28T17:10:25Z</time>
					</trkpt>
					<trkpt lat="43.446220" lon="4.980450">
						<ele>25</ele>
						<time>2025-04-28T17:10:35Z</time>
					</trkpt>
					<trkpt lat="43.446310" lon="4.980100">
						<ele>24</ele>
						<time>2025-04-28T17:10:42Z</time>
					</trkpt>
					<trkpt lat="43.447060" lon="4.979290">
						<ele>24</ele>
						<time>2025-04-28T17:11:04Z</time>
					</trkpt>
					<trkpt lat="43.447310" lon="4.979140">
						<ele>27</ele>
						<time>2025-04-28T17:11:10Z</time>
					</trkpt>
					<trkpt lat="43.448000" lon="4.978130">
						<ele>21</ele>
						<time>2025-04-28T17:11:34Z</time>
					</trkpt>
					<trkpt lat="43.448460" lon="4.977960">
						<ele>26</ele>
						<time>2025-04-28T17:11:45Z</time>
					</trkpt>
					<trkpt lat="43.448720" lon="4.977620">
						<ele>23</ele>
						<time>2025-04-28T17:11:53Z</time>
					</trkpt>
					<trkpt lat="43.449140" lon="4.977170">
						<ele>21</ele>
						<time>2025-04-28T17:12:06Z</time>
					</trkpt>
					<trkpt lat="43.449580" lon="4.976900">
						<ele>18</ele>
						<time>2025-04-28T17:12:17Z</time>
					</trkpt>
					<trkpt lat="43.449940" lon="4.976800">
						<ele>19</ele>
						<time>2025-04-28T17:12:25Z</time>
					</trkpt>
					<trkpt lat="43.450240" lon="4.976880">
						<ele>22</ele>
						<time>2025-04-28T17:12:33Z</time>
					</trkpt>
					<trkpt lat="43.450740" lon="4.977050">
						<ele>28</ele>
						<time>2025-04-28T17:12:45Z</time>
					</trkpt>
					<trkpt lat="43.450890" lon="4.977080">
						<ele>30</ele>
						<time>2025-04-28T17:12:48Z</time>
					</trkpt>
					<trkpt lat="43.451160" lon="4.976710">
						<ele>25</ele>
						<time>2025-04-28T17:12:57Z</time>
					</trkpt>
					<trkpt lat="43.451650" lon="4.976480">
						<ele>25</ele>
						<time>2025-04-28T17:13:09Z</time>
					</trkpt>
					<trkpt lat="43.452310" lon="4.976200">
						<ele>23</ele>
						<time>2025-04-28T17:13:25Z</time>
					</trkpt>
					<trkpt lat="43.452770" lon="4.976120">
						<ele>25</ele>
						<time>2025-04-28T17:13:36Z</time>
					</trkpt>
					<trkpt lat="43.453300" lon="4.975980">
						<ele>26</ele>
						<time>2025-04-28T17:13:49Z</time>
					</trkpt>
					<trkpt lat="43.453940" lon="4.975840">
						<ele>26</ele>
						<time>2025-04-28T17:14:04Z</time>
					</trkpt>
					<trkpt lat="43.454240" lon="4.975670">
						<ele>22</ele>
						<time>2025-04-28T17:14:11Z</time>
					</trkpt>
					<trkpt lat="43.455000" lon="4.975840">
						<ele>21</ele>
						<time>2025-04-28T17:14:29Z</time>
					</trkpt>
					<trkpt lat="43.455510" lon="4.976080">
						<ele>19</ele>
						<time>2025-04-28T17:14:42Z</time>
					</trkpt>
					<trkpt lat="43.455800" lon="4.976480">
						<ele>27</ele>
						<time>2025-04-28T17:14:52Z</time>
					</trkpt>
					<trkpt lat="43.456410" lon="4.976910">
						<ele>23</ele>
						<time>2025-04-28T17:15:08Z</time>
					</trkpt>
					<trkpt lat="43.456860" lon="4.977330">
						<ele>23</ele>
						<time>2025-04-28T17:15:20Z</time>
					</trkpt>
					<trkpt lat="43.456980" lon="4.977800">
						<ele>26</ele>
						<time>2025-04-28T17:15:29Z</time>
					</trkpt>
					<trkpt lat="43.456890" lon="4.978200">
						<ele>32</ele>
						<time>2025-04-28T17:15:36Z</time>
					</trkpt>
					<trkpt lat="43.456970" lon="4.978630">
						<ele>34</ele>
						<time>2025-04-28T17:15:43Z</time>
					</trkpt>
					<trkpt lat="43.457700" lon="4.979080">
						<ele>26</ele>
						<time>2025-04-28T17:16:02Z</time>
					</trkpt>
					<trkpt lat="43.458120" lon="4.979950">
						<ele>34</ele>
						<time>2025-04-28T17:16:20Z</time>
					</trkpt>
					<trkpt lat="43.458670" lon="4.980450">
						<ele>33</ele>
						<time>2025-04-28T17:16:35Z</time>
					</trkpt>
					<trkpt lat="43.459060" lon="4.980720">
						<ele>31</ele>
						<time>2025-04-28T17:16:45Z</time>
					</trkpt>
					<trkpt lat="43.459510" lon="4.980710">
						<ele>29</ele>
						<time>2025-04-28T17:16:56Z</time>
					</trkpt>
					<trkpt lat="43.459840" lon="4.980750">
						<ele>30</ele>
						<time>2025-04-28T17:17:04Z</time>
					</trkpt>
					<trkpt lat="43.460140" lon="4.980320">
						<ele>20</ele>
						<time>2025-04-28T17:17:14Z</time>
					</trkpt>
					<trkpt lat="43.460580" lon="4.980000">
						<ele>17</ele>
						<time>2025-04-28T17:17:25Z</time>
					</trkpt>
					<trkpt lat="43.461220" lon="4.979990">
						<ele>18</ele>
						<time>2025-04-28T17:17:40Z</time>
					</trkpt>
					<trkpt lat="43.461730" lon="4.980150">
						<ele>22</ele>
						<time>2025-04-28T17:17:52Z</time>
					</trkpt>
					<trkpt lat="43.462180" lon="4.980420">
						<ele>24</ele>
						<time>2025-04-28T17:18:04Z</time>
					</trkpt>
					<trkpt lat="43.462350" lon="4.980420">
						<ele>20</ele>
						<time>2025-04-28T17:18:08Z</time>
					</trkpt>
					<trkpt lat="43.462610" lon="4.980650">
						<ele>25</ele>
						<time>2025-04-28T17:18:15Z</time>
					</trkpt>
					<trkpt lat="43.462920" lon="4.980700">
						<ele>27</ele>
						<time>2025-04-28T17:18:22Z</time>
					</trkpt>
					<trkpt lat="43.463600" lon="4.980620">
						<ele>23</ele>
						<time>2025-04-28T17:18:38Z</time>
					</trkpt>
					<trkpt lat="43.464380" lon="4.980490">
						<ele>21</ele>
						<time>2025-04-28T17:18:57Z</time>
					</trkpt>
					<trkpt lat="43.464620" lon="4.980560">
						<ele>23</ele>
						<time>2025-04-28T17:19:02Z</time>
					</trkpt>
					<trkpt lat="43.464820" lon="4.980720">
						<ele>26</ele>
						<time>2025-04-28T17:19:08Z</time>
					</trkpt>
					<trkpt lat="43.464960" lon="4.980830">
						<ele>27</ele>
						<time>2025-04-28T17:19:12Z</time>
					</trkpt>
					<trkpt lat="43.465260" lon="4.980610">
						<ele>23</ele>
						<time>2025-04-28T17:19:19Z</time>
					</trkpt>
					<trkpt lat="43.465790" lon="4.980470">
						<ele>22</ele>
						<time>2025-04-28T17:19:32Z</time>
					</trkpt>
					<trkpt lat="43.466390" lon="4.980240">
						<ele>25</ele>
						<time>2025-04-28T17:19:47Z</time>
					</trkpt>
					<trkpt lat="43.467120" lon="4.980170">
						<ele>25</ele>
						<time>2025-04-28T17:20:04Z</time>
					</trkpt>
					<trkpt lat="43.467540" lon="4.980040">
						<ele>27</ele>
						<time>2025-04-28T17:20:14Z</time>
					</trkpt>
					<trkpt lat="43.468280" lon="4.980040">
						<ele>27</ele>
						<time>2025-04-28T17:20:31Z</time>
					</trkpt>
					<trkpt lat="43.469130" lon="4.980030">
						<ele>27</ele>
						<time>2025-04-28T17:20:51Z</time>
					</trkpt>
					<trkpt lat="43.469260" lon="4.979920">
						<ele>29</ele>
						<time>2025-04-28T17:20:54Z</time>
					</trkpt>
					<trkpt lat="43.470230" lon="4.979900">
						<ele>27</ele>
						<time>2025-04-28T17:21:17Z</time>
					</trkpt>
					<trkpt lat="43.470950" lon="4.979840">
						<ele>28</ele>
						<time>2025-04-28T17:21:34Z</time>
					</trkpt>
					<trkpt lat="43.471400" lon="4.980030">
						<ele>26</ele>
						<time>2025-04-28T17:21:45Z</time>
					</trkpt>
					<trkpt lat="43.471710" lon="4.979890">
						<ele>27</ele>
						<time>2025-04-28T17:21:53Z</time>
					</trkpt>
					<trkpt lat="43.472730" lon="4.979250">
						<ele>27</ele>
						<time>2025-04-28T17:22:19Z</time>
					</trkpt>
					<trkpt lat="43.473200" lon="4.978430">
						<ele>23</ele>
						<time>2025-04-28T17:22:36Z</time>
					</trkpt>
					<trkpt lat="43.473630" lon="4.978400">
						<ele>20</ele>
						<time>2025-04-28T17:22:47Z</time>
					</trkpt>
					<trkpt lat="43.473940" lon="4.978390">
						<ele>19</ele>
						<time>2025-04-28T17:22:54Z</time>
					</trkpt>
					<trkpt lat="43.474350" lon="4.978020">
						<ele>18</ele>
						<time>2025-04-28T17:23:05Z</time>
					</trkpt>
					<trkpt lat="43.474400" lon="4.978290">
						<ele>18</ele>
						<time>2025-04-28T17:23:10Z</time>
					</trkpt>
					<trkpt lat="43.474390" lon="4.978720">
						<ele>17</ele>
						<time>2025-04-28T17:23:17Z</time>
					</trkpt>
					<trkpt lat="43.474440" lon="4.979110">
						<ele>17</ele>
						<time>2025-04-28T17:23:24Z</time>
					</trkpt>
					<trkpt lat="43.474400" lon="4.979350">
						<ele>17</ele>
						<time>2025-04-28T17:23:28Z</time>
					</trkpt>
					<trkpt lat="43.474320" lon="4.979880">
						<ele>18</ele>
						<time>2025-04-28T17:23:37Z</time>
					</trkpt>
					<trkpt lat="43.474260" lon="4.980750">
						<ele>20</ele>
						<time>2025-04-28T17:23:52Z</time>
					</trkpt>
					<trkpt lat="43.474170" lon="4.981010">
						<ele>20</ele>
						<time>2025-04-28T17:23:57Z</time>
					</trkpt>
					<trkpt lat="43.474230" lon="4.981310">
						<ele>17</ele>
						<time>2025-04-28T17:24:02Z</time>
					</trkpt>
					<trkpt lat="43.474350" lon="4.981560">
						<ele>15</ele>
						<time>2025-04-28T17:24:07Z</time>
					</trkpt>
					<trkpt lat="43.474490" lon="4.981880">
						<ele>13</ele>
						<time>2025-04-28T17:24:14Z</time>
					</trkpt>
					<trkpt lat="43.474760" lon="4.981950">
						<ele>14</ele>
						<time>2025-04-28T17:24:20Z</time>
					</trkpt>
					<trkpt lat="43.475000" lon="4.982130">
						<ele>14</ele>
						<time>2025-04-28T17:24:26Z</time>
					</trkpt>
					<trkpt lat="43.475220" lon="4.982250">
						<ele>15</ele>
						<time>2025-04-28T17:24:32Z</time>
					</trkpt>
					<trkpt lat="43.475470" lon="4.982890">
						<ele>15</ele>
						<time>2025-04-28T17:24:44Z</time>
					</trkpt>
					<trkpt lat="43.475610" lon="4.983150">
						<ele>16</ele>
						<time>2025-04-28T17:24:50Z</time>
					</trkpt>
					<trkpt lat="43.475800" lon="4.983410">
						<ele>17</ele>
						<time>2025-04-28T17:24:56Z</time>
					</trkpt>
					<trkpt lat="43.476130" lon="4.983600">
						<ele>18</ele>
						<time>2025-04-28T17:25:04Z</time>
					</trkpt>
					<trkpt lat="43.476390" lon="4.983490">
						<ele>21</ele>
						<time>2025-04-28T17:25:11Z</time>
					</trkpt>
					<trkpt lat="43.476570" lon="4.983530">
						<ele>23</ele>
						<time>2025-04-28T17:25:15Z</time>
					</trkpt>
					<trkpt lat="43.476750" lon="4.983390">
						<ele>24</ele>
						<time>2025-04-28T17:25:20Z</time>
					</trkpt>
					<trkpt lat="43.476930" lon="4.983160">
						<ele>24</ele>
						<time>2025-04-28T17:25:26Z</time>
					</trkpt>
					<trkpt lat="43.477150" lon="4.983150">
						<ele>23</ele>
						<time>2025-04-28T17:25:31Z</time>
					</trkpt>
					<trkpt lat="43.477290" lon="4.983340">
						<ele>23</ele>
						<time>2025-04-28T17:25:35Z</time>
					</trkpt>
					<trkpt lat="43.477470" lon="4.983780">
						<ele>21</ele>
						<time>2025-04-28T17:25:44Z</time>
					</trkpt>
					<trkpt lat="43.477600" lon="4.983940">
						<ele>20</ele>
						<time>2025-04-28T17:25:48Z</time>
					</trkpt>
					<trkpt lat="43.477720" lon="4.983990">
						<ele>20</ele>
						<time>2025-04-28T17:25:51Z</time>
					</trkpt>
					<trkpt lat="43.477950" lon="4.984080">
						<ele>18</ele>
						<time>2025-04-28T17:25:56Z</time>
					</trkpt>
					<trkpt lat="43.478040" lon="4.984330">
						<ele>17</ele>
						<time>2025-04-28T17:26:01Z</time>
					</trkpt>
					<trkpt lat="43.478360" lon="4.984560">
						<ele>17</ele>
						<time>2025-04-28T17:26:10Z</time>
					</trkpt>
					<trkpt lat="43.478540" lon="4.984790">
						<ele>19</ele>
						<time>2025-04-28T17:26:15Z</time>
					</trkpt>
					<trkpt lat="43.478710" lon="4.985100">
						<ele>21</ele>
						<time>2025-04-28T17:26:22Z</time>
					</trkpt>
					<trkpt lat="43.479210" lon="4.985470">
						<ele>22</ele>
						<time>2025-04-28T17:26:35Z</time>
					</trkpt>
					<trkpt lat="43.479350" lon="4.985790">
						<ele>20</ele>
						<time>2025-04-28T17:26:41Z</time>
					</trkpt>
					<trkpt lat="43.479460" lon="4.986020">
						<ele>19</ele>
						<time>2025-04-28T17:26:46Z</time>
					</trkpt>
					<trkpt lat="43.479720" lon="4.986240">
						<ele>18</ele>
						<time>2025-04-28T17:26:53Z</time>
					</trkpt>
					<trkpt lat="43.479950" lon="4.986620">
						<ele>18</ele>
						<time>2025-04-28T17:27:02Z</time>
					</trkpt>
					<trkpt lat="43.480020" lon="4.986850">
						<ele>19</ele>
						<time>2025-04-28T17:27:06Z</time>
					</trkpt>
					<trkpt lat="43.480180" lon="4.987320">
						<ele>21</ele>
						<time>2025-04-28T17:27:15Z</time>
					</trkpt>
					<trkpt lat="43.480200" lon="4.987630">
						<ele>23</ele>
						<time>2025-04-28T17:27:20Z</time>
					</trkpt>
					<trkpt lat="43.479970" lon="4.987850">
						<ele>25</ele>
						<time>2025-04-28T17:27:27Z</time>
					</trkpt>
					<trkpt lat="43.479850" lon="4.988210">
						<ele>28</ele>
						<time>2025-04-28T17:27:33Z</time>
					</trkpt>
					<trkpt lat="43.480110" lon="4.988050">
						<ele>27</ele>
						<time>2025-04-28T17:27:40Z</time>
					</trkpt>
					<trkpt lat="43.480370" lon="4.988160">
						<ele>27</ele>
						<time>2025-04-28T17:27:46Z</time>
					</trkpt>
					<trkpt lat="43.480610" lon="4.988410">
						<ele>29</ele>
						<time>2025-04-28T17:27:53Z</time>
					</trkpt>
					<trkpt lat="43.480730" lon="4.988770">
						<ele>35</ele>
						<time>2025-04-28T17:28:00Z</time>
					</trkpt>
					<trkpt lat="43.481020" lon="4.988930">
						<ele>38</ele>
						<time>2025-04-28T17:28:07Z</time>
					</trkpt>
					<trkpt lat="43.481150" lon="4.989130">
						<ele>42</ele>
						<time>2025-04-28T17:28:12Z</time>
					</trkpt>
					<trkpt lat="43.481730" lon="4.988890">
						<ele>41</ele>
						<time>2025-04-28T17:28:26Z</time>
					</trkpt>
					<trkpt lat="43.481910" lon="4.988850">
						<ele>39</ele>
						<time>2025-04-28T17:28:30Z</time>
					</trkpt>
					<trkpt lat="43.482180" lon="4.988840">
						<ele>37</ele>
						<time>2025-04-28T17:28:37Z</time>
					</trkpt>
					<trkpt lat="43.482410" lon="4.989110">
						<ele>39</ele>
						<time>2025-04-28T17:28:44Z</time>
					</trkpt>
					<trkpt lat="43.482530" lon="4.989300">
						<ele>40</ele>
						<time>2025-04-28T17:28:48Z</time>
					</trkpt>
					<trkpt lat="43.482790" lon="4.989700">
						<ele>39</ele>
						<time>2025-04-28T17:28:57Z</time>
					</trkpt>
					<trkpt lat="43.482890" lon="4.989940">
						<ele>39</ele>
						<time>2025-04-28T17:29:02Z</time>
					</trkpt>
					<trkpt lat="43.483110" lon="4.990320">
						<ele>39</ele>
						<time>2025-04-28T17:29:10Z</time>
					</trkpt>
					<trkpt lat="43.483290" lon="4.989930">
						<ele>34</ele>
						<time>2025-04-28T17:29:18Z</time>
					</trkpt>
					<trkpt lat="43.483650" lon="4.989660">
						<ele>29</ele>
						<time>2025-04-28T17:29:27Z</time>
					</trkpt>
					<trkpt lat="43.484140" lon="4.989520">
						<ele>25</ele>
						<time>2025-04-28T17:29:39Z</time>
					</trkpt>
					<trkpt lat="43.484300" lon="4.989210">
						<ele>25</ele>
						<time>2025-04-28T17:29:45Z</time>
					</trkpt>
					<trkpt lat="43.484440" lon="4.989030">
						<ele>25</ele>
						<time>2025-04-28T17:29:50Z</time>
					</trkpt>
					<trkpt lat="43.484870" lon="4.989240">
						<ele>28</ele>
						<time>2025-04-28T17:30:01Z</time>
					</trkpt>
					<trkpt lat="43.485110" lon="4.989390">
						<ele>30</ele>
						<time>2025-04-28T17:30:07Z</time>
					</trkpt>
					<trkpt lat="43.485260" lon="4.989480">
						<ele>32</ele>
						<time>2025-04-28T17:30:10Z</time>
					</trkpt>
					<trkpt lat="43.485390" lon="4.989320">
						<ele>32</ele>
						<time>2025-04-28T17:30:15Z</time>
					</trkpt>
					<trkpt lat="43.485490" lon="4.989060">
						<ele>32</ele>
						<time>2025-04-28T17:30:20Z</time>
					</trkpt>
					<trkpt lat="43.485590" lon="4.988880">
						<ele>32</ele>
						<time>2025-04-28T17:30:23Z</time>
					</trkpt>
					<trkpt lat="43.485700" lon="4.988770">
						<ele>33</ele>
						<time>2025-04-28T17:30:27Z</time>
					</trkpt>
					<trkpt lat="43.485700" lon="4.988600">
						<ele>33</ele>
						<time>2025-04-28T17:30:29Z</time>
					</trkpt>
					<trkpt lat="43.485900" lon="4.988800">
						<ele>35</ele>
						<time>2025-04-28T17:30:35Z</time>
					</trkpt>
					<trkpt lat="43.486230" lon="4.988810">
						<ele>37</ele>
						<time>2025-04-28T17:30:43Z</time>
					</trkpt>
					<trkpt lat="43.486510" lon="4.988840">
						<ele>39</ele>
						<time>2025-04-28T17:30:49Z</time>
					</trkpt>
					<trkpt lat="43.486690" lon="4.988950">
						<ele>41</ele>
						<time>2025-04-28T17:30:54Z</time>
					</trkpt>
					<trkpt lat="43.486890" lon="4.989130">
						<ele>41</ele>
						<time>2025-04-28T17:31:00Z</time>
					</trkpt>
					<trkpt lat="43.486980" lon="4.989270">
						<ele>42</ele>
						<time>2025-04-28T17:31:03Z</time>
					</trkpt>
					<trkpt lat="43.487020" lon="4.989480">
						<ele>44</ele>
						<time>2025-04-28T17:31:07Z</time>
					</trkpt>
					<trkpt lat="43.487180" lon="4.989730">
						<ele>45</ele>
						<time>2025-04-28T17:31:12Z</time>
					</trkpt>
					<trkpt lat="43.487340" lon="4.990080">
						<ele>47</ele>
						<time>2025-04-28T17:31:19Z</time>
					</trkpt>
					<trkpt lat="43.487530" lon="4.990550">
						<ele>46</ele>
						<time>2025-04-28T17:31:28Z</time>
					</trkpt>
					<trkpt lat="43.487760" lon="4.990940">
						<ele>44</ele>
						<time>2025-04-28T17:31:37Z</time>
					</trkpt>
					<trkpt lat="43.488000" lon="4.991290">
						<ele>44</ele>
						<time>2025-04-28T17:31:45Z</time>
					</trkpt>
					<trkpt lat="43.488380" lon="4.991950">
						<ele>44</ele>
						<time>2025-04-28T17:31:59Z</time>
					</trkpt>
					<trkpt lat="43.488510" lon="4.992090">
						<ele>44</ele>
						<time>2025-04-28T17:32:03Z</time>
					</trkpt>
					<trkpt lat="43.488710" lon="4.992090">
						<ele>44</ele>
						<time>2025-04-28T17:32:08Z</time>
					</trkpt>
					<trkpt lat="43.488850" lon="4.992410">
						<ele>44</ele>
						<time>2025-04-28T17:32:14Z</time>
					</trkpt>
					<trkpt lat="43.489090" lon="4.992830">
						<ele>46</ele>
						<time>2025-04-28T17:32:23Z</time>
					</trkpt>
					<trkpt lat="43.489360" lon="4.993070">
						<ele>47</ele>
						<time>2025-04-28T17:32:31Z</time>
					</trkpt>
					<trkpt lat="43.489770" lon="4.992960">
						<ele>47</ele>
						<time>2025-04-28T17:32:40Z</time>
					</trkpt>
					<trkpt lat="43.490880" lon="4.992670">
						<ele>48</ele>
						<time>2025-04-28T17:33:07Z</time>
					</trkpt>
					<trkpt lat="43.491500" lon="4.992750">
						<ele>49</ele>
						<time>2025-04-28T17:33:21Z</time>
					</trkpt>
					<trkpt lat="43.491650" lon="4.992930">
						<ele>50</ele>
						<time>2025-04-28T17:33:26Z</time>
					</trkpt>
					<trkpt lat="43.491750" lon="4.993250">
						<ele>49</ele>
						<time>2025-04-28T17:33:32Z</time>
					</trkpt>
					<trkpt lat="43.492080" lon="4.993150">
						<ele>48</ele>
						<time>2025-04-28T17:33:40Z</time>
					</trkpt>
					<trkpt lat="43.492380" lon="4.993070">
						<ele>47</ele>
						<time>2025-04-28T17:33:47Z</time>
					</trkpt>
					<trkpt lat="43.494280" lon="4.992820">
						<ele>42</ele>
						<time>2025-04-28T17:34:31Z</time>
					</trkpt>
					<trkpt lat="43.495240" lon="4.992710">
						<ele>40</ele>
						<time>2025-04-28T17:34:54Z</time>
					</trkpt>
					<trkpt lat="43.495350" lon="4.992780">
						<ele>40</ele>
						<time>2025-04-28T17:34:57Z</time>
					</trkpt>
					<trkpt lat="43.495570" lon="4.992610">
						<ele>39</ele>
						<time>2025-04-28T17:35:03Z</time>
					</trkpt>
					<trkpt lat="43.495830" lon="4.992430">
						<ele>39</ele>
						<time>2025-04-28T17:35:09Z</time>
					</trkpt>
					<trkpt lat="43.496070" lon="4.992420">
						<ele>39</ele>
						<time>2025-04-28T17:35:15Z</time>
					</trkpt>
					<trkpt lat="43.496260" lon="4.992400">
						<ele>39</ele>
						<time>2025-04-28T17:35:20Z</time>
					</trkpt>
					<trkpt lat="43.496930" lon="4.992190">
						<ele>38</ele>
						<time>2025-04-28T17:35:36Z</time>
					</trkpt>
					<trkpt lat="43.497360" lon="4.992070">
						<ele>38</ele>
						<time>2025-04-28T17:35:46Z</time>
					</trkpt>
					<trkpt lat="43.497580" lon="4.992110">
						<ele>38</ele>
						<time>2025-04-28T17:35:51Z</time>
					</trkpt>
					<trkpt lat="43.498110" lon="4.991950">
						<ele>36</ele>
						<time>2025-04-28T17:36:04Z</time>
					</trkpt>
					<trkpt lat="43.498330" lon="4.991950">
						<ele>36</ele>
						<time>2025-04-28T17:36:09Z</time>
					</trkpt>
					<trkpt lat="43.498500" lon="4.992080">
						<ele>37</ele>
						<time>2025-04-28T17:36:13Z</time>
					</trkpt>
					<trkpt lat="43.498740" lon="4.992000">
						<ele>36</ele>
						<time>2025-04-28T17:36:19Z</time>
					</trkpt>
					<trkpt lat="43.499000" lon="4.992020">
						<ele>35</ele>
						<time>2025-04-28T17:36:25Z</time>
					</trkpt>
					<trkpt lat="43.499090" lon="4.992300">
						<ele>36</ele>
						<time>2025-04-28T17:36:30Z</time>
					</trkpt>
					<trkpt lat="43.499140" lon="4.992580">
						<ele>36</ele>
						<time>2025-04-28T17:36:35Z</time>
					</trkpt>
					<trkpt lat="43.499410" lon="4.992670">
						<ele>35</ele>
						<time>2025-04-28T17:36:42Z</time>
					</trkpt>
					<trkpt lat="43.499610" lon="4.992800">
						<ele>35</ele>
						<time>2025-04-28T17:36:47Z</time>
					</trkpt>
					<trkpt lat="43.499780" lon="4.992930">
						<ele>34</ele>
						<time>2025-04-28T17:36:51Z</time>
					</trkpt>
					<trkpt lat="43.499860" lon="4.993150">
						<ele>34</ele>
						<time>2025-04-28T17:36:56Z</time>
					</trkpt>
					<trkpt lat="43.499880" lon="4.993390">
						<ele>35</ele>
						<time>2025-04-28T17:37:00Z</time>
					</trkpt>
					<trkpt lat="43.499950" lon="4.993540">
						<ele>35</ele>
						<time>2025-04-28T17:37:03Z</time>
					</trkpt>
					<trkpt lat="43.499990" lon="4.993740">
						<ele>35</ele>
						<time>2025-04-28T17:37:06Z</time>
					</trkpt>
					<trkpt lat="43.500440" lon="4.993770">
						<ele>33</ele>
						<time>2025-04-28T17:37:17Z</time>
					</trkpt>
					<trkpt lat="43.500460" lon="4.994110">
						<ele>33</ele>
						<time>2025-04-28T17:37:23Z</time>
					</trkpt>
					<trkpt lat="43.500800" lon="4.994160">
						<ele>32</ele>
						<time>2025-04-28T17:37:31Z</time>
					</trkpt>
					<trkpt lat="43.500760" lon="4.994970">
						<ele>33</ele>
						<time>2025-04-28T17:37:44Z</time>
					</trkpt>
					<trkpt lat="43.501030" lon="4.994960">
						<ele>33</ele>
						<time>2025-04-28T17:37:51Z</time>
					</trkpt>
					</trkseg>
				</trk>
			</gpx>